Alamo, Nevada Weather observations

Data are for observation ending at time listed.
 Day   Time    Ave.   Ave.  Ave.  Vector   Max.   Stn.    Total    Solar   Ave.  
  of    of     Air    Rel.  Wind   Wind    Wind   Baro.  Precip.   Rad.    Soil  
Year   Day     Temp.  Hum.  Speed  Dir.    Gust   Pres.                    Temp. 
2016   (PST)    F      %     mph   deg.    mph     mb.     in.     W/m2     F   
------------------------------------------------------------------------------
 205    0:00   70.6    29    0.9    22      2.3   898.4    0.00       0    82.8
 205    0:10   70.1    29    1.6   347      2.9   898.4    0.00       0    82.5
 205    0:20   69.9    30    0.6   350      2.0   898.0    0.00       0    82.2
 205    0:30   69.1    31    1.3    54      3.5   898.2    0.00       0    82.0
 205    0:40   68.7    30    1.5   360      3.2   898.1    0.00       0    81.7
 205    0:50   70.6    23    2.1    12      3.7   897.4    0.00       0    81.4
 205    1:00   71.6    24    0.4   345      1.8   897.3    0.00       0    81.2
 205    1:10   70.3    26    0.1   321      0.9   897.4    0.00       0    80.9
 205    1:20   69.0    28    0.4    66      1.0   897.5    0.00       0    80.6
 205    1:30   68.5    28    0.8    37      2.2   897.7    0.00       0    80.4
 205    1:40   70.2    25    1.7    38      4.2   898.1    0.00       0    80.2
 205    1:50   70.3    25    1.3   309      2.7   898.0    0.00       0    79.9
 205    2:00   69.2    28    1.0    44      2.3   898.0    0.00       0    79.7
 205    2:10   68.0    30    0.3   185      2.1   898.1    0.00       0    79.5
 205    2:20   67.2    31    0.1    67      1.6   898.1    0.00       0    79.3
 205    2:30   66.7    30    0.6    40      2.5   897.9    0.00       0    79.1
 205    2:40   66.3    32    1.3    21      3.0   898.2    0.00       0    78.9
 205    2:50   66.0    32    1.4   359      2.1   897.8    0.00       0    78.7
 205    3:00   65.6    32    0.4    32      2.3   896.5    0.00       0    78.5
 205    3:10   65.6    32    0.8    51      2.0   896.3    0.00       0    78.3
 205    3:20   65.3    31    1.2    49      2.1   896.3    0.00       0    78.0
 205    3:30   65.2    30    1.2    44      2.8   896.3    0.00       0    77.8
 205    3:40   65.4    28    1.8    58      3.7   896.8    0.00       0    77.6
 205    3:50   65.6    28    0.9    46      2.6   896.7    0.00       0    77.4
 205    4:00   64.9    29    0.3   308      1.3   897.2    0.00       0    77.3
 205    4:10   64.3    30    0.2   241      1.2   898.1    0.00       0    77.1
 205    4:20   63.6    31    0.4   329      1.8   898.0    0.00       0    76.9
 205    4:30   63.3    31    1.1    15      1.9   898.0    0.00       0    76.7
 205    4:40   62.5    32    1.2    32      2.1   897.9    0.00       0    76.5
 205    4:50   61.8    34    0.5    29      1.4   897.0    0.00       3    76.3
 205    5:00   61.8    36    1.3    45      3.1   897.3    0.00       8    76.1
 205    5:10   61.6    35    1.2     9      2.3   897.8    0.00      13    76.0
 205    5:20   62.3    32    1.5     8      2.4   897.9    0.00      14    75.8
 205    5:30   62.9    32    1.9    34      3.4   897.8    0.00      87    75.6
 205    5:40   64.7    31    1.3    18      3.1   897.9    0.00     133    75.5
 205    5:50   67.5    29    1.1    21      2.6   897.9    0.00     168    75.3
 205    6:00   70.3    25    2.2     3      3.9   898.0    0.00     201    75.3
 205    6:10   73.1    22    1.9    19      3.1   898.0    0.00     138    75.4
 205    6:20   75.7    21    1.2    37      2.3   897.9    0.00      47    75.6
 205    6:30   78.3    19    1.2    44      2.6   898.0    0.00      40    75.9
 205    6:40   78.9    17    2.5     7      5.2   898.0    0.00      53    76.3
 205    6:50   79.2    18    2.2    25      3.9   898.1    0.00      85    76.8
 205    7:00   79.3    18    2.4    41      5.0   898.1    0.00     179    77.3
 205    7:10   79.1    17    3.3    57      5.8   898.1    0.00      67    77.8
 205    7:20   80.5    15    2.7    49      5.4   898.2    0.00      94    78.2
 205    7:30   82.3    13    2.6    46      5.0   898.3    0.00      45    78.5
 205    7:40   83.5    13    2.5    33      4.7   898.3    0.00      45    78.5
 205    7:50   84.9    13    1.8    27      3.9   898.3    0.00      79    78.5
 205    8:00   86.0    12    2.1    20      3.7   898.6    0.00      41    78.5
 205    8:10   86.7    12    1.7    17      3.1   899.3    0.00      40    78.5
 205    8:20   87.7    12    1.7    23      3.0   899.4    0.00      40    78.5
 205    8:30   88.5    11    1.9     2      3.6   899.2    0.00      40    78.5
 205    8:40   89.4    11    2.3    11      3.9   898.6    0.00      41    78.5
 205    8:50   89.7    11    2.2    20      4.1   898.3    0.00      43    78.5
 205    9:00   90.5    10    2.3     6      4.7   897.2    0.00      46    78.5
 205    9:10   90.7    11    2.6     3      4.5   897.0    0.00      52    78.6
 205    9:20   91.6    10    2.3    14      3.9   896.8    0.00      75    78.7
 205    9:30   92.1     9    2.3    26      4.2   896.6    0.00      59    78.7
 205    9:40   92.6     9    2.4     9      3.4   896.5    0.00      83    78.8
 205    9:50   93.4     9    1.1    13      3.3   896.4    0.00      70    78.9
 205   10:00   93.9    10    1.0   174      2.7   896.3    0.00      56    79.0
 205   10:10   93.8    10    1.2   224      3.7   896.3    0.00      65    79.1
 205   10:20   94.5    10    0.9   263      4.3   896.5    0.00      55    79.2
 205   10:30   95.0    11    1.4   204      4.3   896.5    0.00      76    79.4
 205   10:40   95.3    10    1.8   215      5.1   896.4    0.00     351    79.5
 205   10:50   96.0    10    1.4   203      3.7   897.4    0.00    1097    79.8
 205   11:00   97.4     8    0.9   122      3.3   896.3    0.00    1128    80.3
 205   11:10   98.7     9    0.7   148      2.9   896.4    0.00    1131    81.2
 205   11:20   99.3     9    0.8   197      2.8   896.9    0.00    1138    82.2
 205   11:30   99.3    11    1.9   191      4.3   896.5    0.00    1147    83.0
 205   11:40  100.1     9    1.5   174      5.1   896.0    0.00    1161    83.6
 205   11:50  101.2     8    0.9   135      3.3   896.7    0.00    1162    84.1
 205   12:00  101.4     9    2.2   218      7.1   896.6    0.00    1161    84.7
 205   12:10  101.9     9    1.6   169      6.1   896.8    0.00    1161    85.8
 205   12:20  103.0     9    1.8   271      5.9   896.4    0.00    1160    87.5
 205   12:30  103.0     9    2.3   262     10.1   895.9    0.00    1154    89.2
 205   12:40  103.3     9    4.1   227     12.9   895.6    0.00    1145    91.0
 205   12:50  103.2     8    5.0   220     10.7   895.7    0.00    1137    92.5
 205   13:00  103.3     8    3.9   215      8.8   896.0    0.00    1128    93.8
 205   13:10  103.7     8    3.2   259      9.4   896.1    0.00    1126    95.0
 205   13:20  104.6     8    2.0   216      7.7   895.9    0.00    1105    96.2
 205   13:30  104.7     8    1.7   102      5.6   895.3    0.00    1082    97.2
 205   13:40  104.7     9    3.5   209     11.4   895.0    0.00    1046    98.3
 205   13:50  104.2     9    4.2   236     13.3   894.7    0.00    1029    99.2
 205   14:00  104.8     9    4.4   210     14.0   894.4    0.00    1006    99.9
 205   14:10  104.2     9    5.2   222     10.7   894.4    0.00     985    100.5
 205   14:20  104.5     9    3.2   215      8.3   894.3    0.00     963    101.0
 205   14:30  104.4    10    3.3   206      8.7   894.3    0.00     939    101.4
 205   14:40  104.3    10    2.6   194      7.1   894.2    0.00     913    101.9
 205   14:50  104.0    10    2.8   196      8.5   894.1    0.00     876    102.3
 205   15:00  104.1     8    4.4   222     10.9   894.0    0.00     833    102.7
 205   15:10  103.9     8    5.9   232     12.4   894.0    0.00     784    102.9
 205   15:20  103.6     8    6.0   218     11.0   893.9    0.00     745    103.0
 205   15:30  103.9     8    4.9   230     14.6   893.8    0.00     702    103.0
 205   15:40  103.6     8    3.9   219     10.4   893.7    0.00     670    103.0
 205   15:50  103.8     8    3.1   212      8.6   893.7    0.00     627    102.9
 205   16:00  103.5     8    3.7   208     10.0   893.7    0.00     614    102.8
 205   16:10  103.5     9    2.7   208      6.1   893.6    0.00     595    102.6
 205   16:20  103.3     8    5.9   214     11.5   893.5    0.00     562    102.3
 205   16:30  103.1     8    4.6   220     12.6   893.4    0.00     538    101.9
 205   16:40  103.0     8    4.7   216     13.3   893.4    0.00     492    101.6
 205   16:50  103.0     8    4.0   228      8.2   893.3    0.00     455    101.1
 205   17:00  102.7     8    3.9   218     10.2   893.2    0.00     420    100.4
 205   17:10  102.4     8    3.5   216      7.1   893.2    0.00     376    99.8
 205   17:20  102.4     8    4.0   207     10.3   893.2    0.00     327    99.1
 205   17:30  101.7     9    3.0   211      9.3   893.2    0.00     289    98.5
 205   17:40  101.6     8    2.5   196      8.8   893.2    0.00     250    98.2
 205   17:50  101.8     8    3.1   210      9.1   893.2    0.00     220    97.8
 205   18:00  101.1     9    1.6   213      9.2   893.2    0.00     182    97.3
 205   18:10  101.0     8    3.0   224      7.9   893.2    0.00     146    96.7
 205   18:20  100.1     8    2.8   214      6.9   893.3    0.00     108    96.1
 205   18:30   99.6     8    3.5   211      8.8   893.3    0.00      75    95.5
 205   18:40   99.2     8    3.3   215      7.7   893.4    0.00      39    95.0
 205   18:50   98.0     9    0.7   205      3.0   893.4    0.00      16    94.4
 205   19:00   94.6    11    0.3   223      3.1   893.5    0.00       7    93.9
 205   19:10   92.5    11    0.5   212      2.2   893.6    0.00       2    93.5
 205   19:20   90.2    13    0.3    45      1.5   893.6    0.00       0    92.9
 205   19:30   88.3    13    0.4    42      1.3   893.6    0.00       0    92.4
 205   19:40   87.0    14    0.4    38      1.6   893.7    0.00       0    91.8
 205   19:50   85.9    15    1.2   356      3.1   893.7    0.00       0    91.3
 205   20:00   85.8    15    1.7     4      4.2   893.9    0.00       0    90.8
 205   20:10   86.4    14    1.9     7      4.3   894.0    0.00       0    90.3
 205   20:20   85.2    15    0.7   210      1.8   894.2    0.00       0    89.9
 205   20:30   84.7    15    0.9   111      2.9   894.2    0.00       0    89.5
 205   20:40   84.8    15    1.2   228      3.6   894.1    0.00       0    89.0
 205   20:50   84.7    15    0.5   261      1.5   894.0    0.00       0    88.6
 205   21:00   83.9    16    0.5   184      2.9   894.0    0.00       0    88.2
 205   21:10   83.7    16    0.6   203      2.5   894.2    0.00       0    87.9
 205   21:20   83.1    17    1.3    11      3.4   894.3    0.00       0    87.5
 205   21:30   84.3    15    2.3     2      4.8   894.4    0.00       0    87.2
 205   21:40   82.5    18    0.6    28      2.6   894.6    0.00       0    86.8
 205   21:50   80.4    20    0.7   310      1.9   894.8    0.00       0    86.5
 205   22:00   79.2    20    0.2   259      1.3   894.9    0.00       0    86.3
 205   22:10   78.3    21    0.9    22      3.3   895.0    0.00       0    85.9
 205   22:20   76.9    22    0.7   193      1.8   895.4    0.00       0    85.6
 205   22:30   76.4    23    0.5    56      1.9   895.7    0.00       0    85.3
 205   22:40   75.5    25    1.3   219      3.2   895.9    0.00       0    85.0
 205   22:50   75.9    24    0.4    60      2.9   894.9    0.00       0    84.7
 205   23:00   74.7    25    0.0    57      0.7   895.3    0.00       0    84.4
 205   23:10   74.1    24    1.0   194      2.2   895.7    0.00       0    84.1
 205   23:20   73.7    26    0.4   351      1.5   895.3    0.00       0    83.8

Return to Alamo, Nevada graphs page.


Western Regional Climate Center,wrcc@dri.edu